Nearby METAR Reports

 

KBJC - Broomfield/Jeffc, Colorado, USA
Distance from station: SSW 3mi, 5km
Updated: Tue, 21-Aug-2018 5:30am MDT
Partly cloudy
Partly cloudy
 Wind from NW
Wind: NW 8 mph , 13 km/h
Temperature: 55°F , 13°C
Dew Point: 37°F , 3°C
Humidity: 51%
Barometer: 30.28 inHg , 1025.4 hPa
Clouds: Partly cloudy
Visibility: 10 miles , 16 km
Cloud details: Partly cloudy 12000 ft
2018/08/21 11:30 KBJC 211130Z AUTO 32007KT 10SM SCT120 13/03 A3028 RMK AO2
KEIK - Erie Muni, Colorado, USA
Distance from station: N 5mi, 9km
Updated: Tue, 21-Aug-2018 5:36am MDT
Clear
Clear
 Wind from NNW
Wind: NNW 3 mph , 6 km/h
Temperature: 55°F , 13°C
Dew Point: 41°F , 5°C
Humidity: 59%
Barometer: 30.31 inHg , 1026.4 hPa
Clouds: Clear
Visibility: 10 miles , 16 km
2018/08/21 11:36 KEIK 211136Z AUTO 34003KT 10SM CLR 13/05 A3031 RMK AO2 T01260053
 
KBDU - Boulder Muni, Colorado, USA
Distance from station: NW 11mi, 17km
Updated: Tue, 21-Aug-2018 5:30am MDT
Clear
Clear
 Wind from NW
Wind: NW 7 mph , 11 km/h
Temperature: 55°F , 13°C
Dew Point: 39°F , 4°C
Humidity: 55%
Barometer: 30.26 inHg , 1024.7 hPa
Clouds: Clear
Visibility: 10 miles , 16 km
2018/08/21 11:30 KBDU 211130Z AUTO 32006KT 10SM CLR 13/04 A3026 RMK AO2
KLMO - Longmont/Vbrand, Colorado, USA
Distance from station: NNW 16mi, 27km
Updated: Sun, 19-Aug-2018 6:15am MDT
NOT Current
Mostly cloudy
Mostly cloudy
 Wind from SW
Wind: SW 3 mph , 6 km/h
Temperature: 52°F , 11°C
Dew Point: 50°F , 10°C
Humidity: 94%
Barometer: 30.20 inHg , 1022.7 hPa
Clouds: Mostly cloudy
Visibility: 10 miles , 16 km
Cloud details: Mostly cloudy 10000 ft
2018/08/19 12:15 KLMO 191215Z AUTO 23003KT 10SM BKN100 11/10 A3020 RMK AO2 T01100097
 
KBKF - Buckley Angb/Den, Colorado, USA
Distance from station: SE 23mi, 37km
Updated: Tue, 21-Aug-2018 4:58am MDT
Few Clouds
Few Clouds
 Wind from W
Wind: W 7 mph , 11 km/h
Temperature: 54°F , 12°C
Dew Point: 43°F , 6°C
Humidity: 67%
Barometer: 30.29 inHg , 1025.7 hPa
Clouds: Few Clouds
Visibility: 10 miles , 16 km
Cloud details: Few Clouds 14000 ft
2018/08/21 10:58 KBKF 211058Z 27006KT 10SM FEW140 12/06 A3029 RMK AO2A SLP195 T01170060
KDEN - Denver (dia), Colorado, USA
Distance from station: ESE 23mi, 37km
Updated: Tue, 21-Aug-2018 4:53am MDT
Partly cloudy
Partly cloudy
 Wind from W
Wind: W 12 mph , 19 km/h
Temperature: 54°F , 12°C
Dew Point: 43°F , 6°C
Humidity: 67%
Barometer: 30.25 inHg , 1024.4 hPa
Clouds: Partly cloudy
Visibility: 10 miles , 16 km
Cloud details: Partly cloudy 14000 ft
Partly cloudy 22000 ft
2018/08/21 10:53 KDEN 211053Z 26010KT 10SM SCT140 SCT220 12/06 A3025 RMK AO2 SLP181 T01170056
 
KAPA - Denver/Arapahoe, Colorado, USA
Distance from station: SSE 28mi, 46km
Updated: Tue, 21-Aug-2018 4:53am MDT
Few Clouds
Few Clouds
 Wind from WNW
Wind: WNW 8 mph , 13 km/h
Temperature: 54°F , 12°C
Dew Point: 41°F , 5°C
Humidity: 63%
Barometer: 30.29 inHg , 1025.7 hPa
Clouds: Few Clouds
Visibility: 10 miles , 16 km
Cloud details: Few Clouds 10000 ft
2018/08/21 10:53 KAPA 211053Z 30007KT 10SM FEW100 12/05 A3029 RMK AO2 SLP200 T01220050
KFTG - Denver F. Range, Colorado, USA
Distance from station: ESE 30mi, 48km
Updated: Mon, 20-Aug-2018 8:47pm MDT
NOT Current
Haze, Mostly cloudy
Haze, Mostly cloudy
 Wind from E
Wind: E 8 mph , 13 km/h
Temperature: 63°F , 17°C
Dew Point: 41°F , 5°C
Humidity: 45%
Barometer: 30.25 inHg , 1024.4 hPa
Summary: Haze
Clouds: Mostly cloudy
Visibility: 4 miles , 6 km
Cloud details: Mostly cloudy 22000 ft
2018/08/21 02:47 KFTG 210247Z 09007KT 4SM HZ BKN220 17/05 A3025
 
KFNL - Ft Collins/Lovel, Colorado, USA
Distance from station: N 35mi, 57km
Updated: Tue, 21-Aug-2018 4:56am MDT
Overcast
Overcast
 Wind from NE
Wind: NE 8 mph , 13 km/h
Temperature: 57°F , 14°C
Dew Point: 39°F , 4°C
Humidity: 51%
Barometer: 30.27 inHg , 1025.1 hPa
Clouds: Overcast
Visibility: 10 miles , 16 km
Cloud details: Overcast 11000 ft
2018/08/21 10:56 KFNL 211056Z AUTO 04007KT 10SM OVC110 14/04 A3027 RMK AO2 SLP200 T01440044 PNO $
K0CO - Berthoud Pass, Colorado, USA
Distance from station: WSW 38mi, 61km
Updated: Tue, 21-Aug-2018 5:48am MDT
Light drizzle, Partly cloudy
Light drizzle, Partly cloudy
 Wind from NW
Wind: NW 14 mph , 22 km/h, Gust: 20 mph , 31 km/h
Temperature: 36°F , 2°C
Wind Chill: 27°F , -3°C
Dew Point: 23°F , -5°C
Humidity: 60%
Barometer: 30.63 inHg , 1037.3 hPa
Summary: Light Drizzle
Clouds: Partly cloudy
Visibility: 10 miles , 16 km
Cloud details: Partly cloudy 2600 ft
Partly cloudy 3700 ft
Partly cloudy 5000 ft
2018/08/21 11:48 K0CO 211148Z AUTO 32012G17KT 10SM -DZ SCT026 SCT037 SCT050 02/M05 A3063 RMK AO2 LTG DSNT W
 
KGXY - Greeley/Weld, Colorado, USA
Distance from station: NE 41mi, 66km
Updated: Tue, 21-Aug-2018 4:56am MDT
Clear
Clear
 Wind from ENE
Wind: ENE 6 mph , 9 km/h
Temperature: 57°F , 14°C
Dew Point: 43°F , 6°C
Humidity: 59%
Barometer: 30.26 inHg , 1024.7 hPa
Clouds: Clear
Visibility: 10 miles , 16 km
2018/08/21 10:56 KGXY 211056Z AUTO 07005KT 10SM CLR 14/06 A3026 RMK AO2 SLP219 T01390056